createdAt,value
2018-05-21T00:00:06.397Z,69.64
2018-05-21T00:01:06.382Z,70.01
2018-05-21T00:02:06.349Z,69.06
2018-05-21T00:03:06.325Z,69.82
2018-05-21T00:04:06.305Z,69.92
2018-05-21T00:05:06.279Z,70.78
2018-05-21T00:06:06.264Z,70.21
2018-05-21T00:07:06.234Z,69.73
2018-05-21T00:08:06.204Z,69.15
2018-05-21T00:09:06.192Z,69.41
2018-05-21T00:10:06.162Z,70.84
2018-05-21T00:11:06.138Z,70.59
2018-05-21T00:12:06.120Z,70.68
2018-05-21T00:13:06.090Z,70.07
2018-05-21T00:14:06.069Z,70.17
2018-05-21T00:15:06.045Z,70.46
2018-05-21T00:16:06.025Z,70.84
2018-05-21T00:17:05.997Z,71.03
2018-05-21T00:18:05.968Z,70.94
2018-05-21T00:19:05.950Z,71.13
2018-05-21T00:20:05.927Z,70.46
2018-05-21T00:21:05.899Z,70.56
2018-05-21T00:22:05.894Z,70.36
2018-05-21T00:23:05.858Z,70.27
2018-05-21T00:24:05.821Z,70.17
2018-05-21T00:25:05.808Z,69.21
2018-05-21T00:26:05.777Z,69.79
2018-05-21T00:27:05.756Z,70.65
2018-05-21T00:28:05.735Z,70.94
2018-05-21T00:29:05.706Z,70.84
2018-05-21T00:30:05.686Z,71.13
2018-05-21T00:31:05.657Z,70.17
2018-05-21T00:32:05.658Z,70.27
2018-05-21T00:33:05.610Z,70.94
2018-05-21T00:34:05.590Z,70.46
2018-05-21T00:35:05.567Z,70.94
2018-05-21T00:36:05.539Z,71.03
2018-05-21T00:37:05.516Z,70.94
2018-05-21T00:38:05.500Z,71.42
2018-05-21T00:39:05.466Z,70.94
2018-05-21T00:40:05.448Z,71.80
2018-05-21T00:41:05.421Z,71.51
2018-05-21T00:42:05.393Z,70.56
2018-05-21T00:43:05.368Z,70.52
2018-05-21T00:44:05.348Z,70.84
2018-05-21T00:45:05.325Z,71.13
2018-05-21T00:46:05.307Z,70.65
2018-05-21T00:47:05.275Z,69.95
2018-05-21T00:48:05.256Z,70.65
2018-05-21T00:49:05.229Z,70.65
2018-05-21T00:50:05.214Z,70.94
2018-05-21T00:51:05.184Z,70.61
2018-05-21T00:52:05.151Z,71.03
2018-05-21T00:53:05.137Z,70.84
2018-05-21T00:54:05.120Z,70.84
2018-05-21T00:55:05.089Z,70.84
2018-05-21T00:56:05.056Z,70.65
2018-05-21T00:57:05.037Z,70.84
2018-05-21T00:58:05.014Z,70.84
2018-05-21T00:59:04.989Z,70.84
2018-05-21T01:00:04.969Z,70.75
2018-05-21T01:01:04.938Z,70.42
2018-05-21T01:02:04.916Z,70.52
2018-05-21T01:03:04.891Z,70.04
2018-05-21T01:04:04.869Z,70.07
2018-05-21T01:05:04.859Z,69.27
2018-05-21T01:06:04.815Z,69.37
2018-05-21T01:07:04.798Z,69.76
2018-05-21T01:08:04.772Z,69.37
2018-05-21T01:09:04.743Z,69.98
2018-05-21T01:10:04.728Z,69.12
2018-05-21T01:11:04.697Z,69.18
2018-05-21T01:12:04.679Z,69.47
2018-05-21T01:13:04.647Z,69.37
2018-05-21T01:14:04.629Z,69.27
2018-05-21T01:15:04.602Z,69.85
2018-05-21T01:16:04.574Z,69.47
2018-05-21T01:17:04.559Z,69.37
2018-05-21T01:18:04.533Z,69.27
2018-05-21T01:19:04.502Z,69.12
2018-05-21T01:20:04.490Z,69.27
2018-05-21T01:21:04.459Z,69.18
2018-05-21T01:22:04.432Z,69.27
2018-05-21T01:23:04.416Z,69.66
2018-05-21T01:24:04.381Z,69.76
2018-05-21T01:25:04.368Z,69.18
2018-05-21T01:26:04.345Z,68.99
2018-05-21T01:27:04.311Z,69.18
2018-05-21T01:28:04.292Z,69.37
2018-05-21T01:29:04.271Z,68.80
2018-05-21T01:30:04.237Z,69.18
2018-05-21T01:31:04.220Z,68.99
2018-05-21T01:32:04.193Z,68.41
2018-05-21T01:33:04.166Z,69.18
2018-05-21T01:34:04.151Z,69.18
2018-05-21T01:35:04.125Z,68.07
2018-05-21T01:36:04.092Z,68.61
2018-05-21T01:37:04.077Z,69.18
2018-05-21T01:38:04.044Z,68.99
2018-05-21T01:39:04.022Z,69.56
2018-05-21T01:40:04.005Z,68.61
2018-05-21T01:41:03.973Z,68.61
2018-05-21T01:42:03.970Z,68.23
2018-05-21T01:43:03.928Z,68.90
2018-05-21T01:44:03.902Z,68.41
2018-05-21T01:45:03.892Z,68.35
2018-05-21T01:46:03.854Z,68.61
2018-05-21T01:47:03.841Z,68.41
2018-05-21T01:48:03.808Z,69.18
2018-05-21T01:49:03.789Z,69.09
2018-05-21T01:50:03.762Z,69.18
2018-05-21T01:51:03.730Z,68.90
2018-05-21T01:52:03.715Z,68.61
2018-05-21T01:53:03.688Z,68.41
2018-05-21T01:54:03.662Z,68.99
2018-05-21T01:55:03.641Z,68.41
2018-05-21T01:56:03.611Z,68.99
2018-05-21T01:57:03.592Z,69.18
2018-05-21T01:58:03.574Z,69.18
2018-05-21T01:59:03.543Z,69.76
2018-05-21T02:00:03.516Z,68.99
2018-05-21T02:01:03.493Z,69.37
2018-05-21T02:02:03.471Z,69.37
2018-05-21T02:03:03.441Z,69.18
2018-05-21T02:04:03.434Z,69.09
2018-05-21T02:05:03.394Z,70.04
2018-05-21T02:06:03.371Z,69.47
2018-05-21T02:07:03.353Z,69.56
2018-05-21T02:08:03.324Z,69.37
2018-05-21T02:09:03.298Z,69.66
2018-05-21T02:10:03.280Z,69.24
2018-05-21T02:11:03.245Z,69.27
2018-05-21T02:12:03.236Z,69.37
2018-05-21T02:13:03.205Z,69.85
2018-05-21T02:14:03.186Z,70.23
2018-05-21T02:15:03.157Z,70.52
2018-05-21T02:16:03.128Z,70.52
2018-05-21T02:17:03.108Z,69.37
2018-05-21T02:18:03.081Z,69.47
2018-05-21T02:19:03.057Z,69.66
2018-05-21T02:20:03.054Z,70.01
2018-05-21T02:21:03.016Z,70.39
2018-05-21T02:22:02.987Z,70.04
2018-05-21T02:23:02.963Z,70.42
2018-05-21T02:24:02.936Z,70.71
2018-05-21T02:25:02.915Z,69.91
2018-05-21T02:26:02.887Z,69.72
2018-05-21T02:27:02.910Z,69.82
2018-05-21T02:28:02.842Z,69.72
2018-05-21T02:29:02.815Z,69.72
2018-05-21T02:30:02.798Z,69.76
2018-05-21T02:31:02.773Z,69.91
2018-05-21T02:32:02.739Z,69.91
2018-05-21T02:33:02.723Z,69.62
2018-05-21T02:34:02.699Z,69.34
2018-05-21T02:35:02.665Z,69.62
2018-05-21T02:36:02.644Z,69.82
2018-05-21T02:37:02.618Z,69.43
2018-05-21T02:38:02.601Z,69.15
2018-05-21T02:39:02.583Z,69.62
2018-05-21T02:40:02.546Z,70.01
2018-05-21T02:41:02.531Z,69.62
2018-05-21T02:42:02.503Z,69.72
2018-05-21T02:43:02.476Z,70.10
2018-05-21T02:44:02.457Z,69.62
2018-05-21T02:45:02.424Z,69.43
2018-05-21T02:46:02.410Z,69.82
2018-05-21T02:47:02.375Z,69.15
2018-05-21T02:48:02.359Z,69.24
2018-05-21T02:49:02.336Z,69.05
2018-05-21T02:50:02.307Z,69.15
2018-05-21T02:51:02.286Z,69.72
2018-05-21T02:52:02.263Z,69.24
2018-05-21T02:53:02.239Z,69.34
2018-05-21T02:54:02.204Z,70.20
2018-05-21T02:55:02.181Z,69.91
2018-05-21T02:56:02.164Z,70.01
2018-05-21T02:57:02.141Z,69.82
2018-05-21T02:58:02.116Z,70.10
2018-05-21T02:59:02.093Z,70.58
2018-05-21T03:00:02.059Z,70.87
2018-05-21T03:01:02.043Z,71.44
2018-05-21T03:02:02.011Z,71.44
2018-05-21T03:03:02.000Z,70.77
2018-05-21T03:04:02.008Z,71.15
2018-05-21T03:05:01.947Z,71.25
2018-05-21T03:06:01.914Z,71.53
2018-05-21T03:07:01.886Z,70.77
2018-05-21T03:08:01.866Z,71.15
2018-05-21T03:09:01.845Z,71.34
2018-05-21T03:10:01.825Z,71.34
2018-05-21T03:11:01.799Z,71.15
2018-05-21T03:12:01.768Z,70.87
2018-05-21T03:13:01.747Z,71.34
2018-05-21T03:14:01.723Z,71.06
2018-05-21T03:15:01.693Z,70.77
2018-05-21T03:16:01.679Z,70.96
2018-05-21T03:17:01.652Z,70.96
2018-05-21T03:18:01.623Z,71.44
2018-05-21T03:19:01.603Z,70.77
2018-05-21T03:20:01.585Z,71.72
2018-05-21T03:21:01.552Z,71.72
2018-05-21T03:22:01.530Z,72.20
2018-05-21T03:23:01.506Z,71.82
2018-05-21T03:24:01.479Z,71.44
2018-05-21T03:25:01.451Z,71.44
2018-05-21T03:26:01.432Z,71.34
2018-05-21T03:27:01.405Z,71.25
2018-05-21T03:28:01.381Z,72.20
2018-05-21T03:29:01.358Z,72.20
2018-05-21T03:30:01.329Z,71.82
2018-05-21T03:31:01.307Z,71.72
2018-05-21T03:32:01.283Z,71.31
2018-05-21T03:33:01.264Z,71.63
2018-05-21T03:34:01.235Z,71.34
2018-05-21T03:35:01.215Z,71.34
2018-05-21T03:36:01.180Z,71.15
2018-05-21T03:37:01.164Z,70.67
2018-05-21T03:38:01.135Z,70.87
2018-05-21T03:39:01.106Z,70.67
2018-05-21T03:40:01.083Z,70.96
2018-05-21T03:41:01.059Z,70.87
2018-05-21T03:42:01.048Z,71.34
2018-05-21T03:43:01.019Z,71.15
2018-05-21T03:44:00.988Z,70.67
2018-05-21T03:45:00.963Z,70.87
2018-05-21T03:46:00.943Z,70.96
2018-05-21T03:47:00.915Z,71.72
2018-05-21T03:48:00.888Z,71.72
2018-05-21T03:49:00.869Z,71.82
2018-05-21T03:50:00.839Z,71.72
2018-05-21T03:51:00.811Z,71.53
2018-05-21T03:52:00.801Z,72.01
2018-05-21T03:53:00.770Z,72.68
2018-05-21T03:54:00.740Z,72.68
2018-05-21T03:55:00.724Z,71.92
2018-05-21T03:56:00.696Z,71.82
2018-05-21T03:57:00.738Z,71.63
2018-05-21T03:58:00.644Z,71.72
2018-05-21T03:59:00.624Z,72.11
2018-05-21T04:00:00.593Z,71.63
2018-05-21T04:01:00.565Z,71.63
2018-05-21T04:02:00.550Z,72.87
2018-05-21T04:03:00.519Z,72.11
2018-05-21T04:04:00.500Z,71.82
2018-05-21T04:05:00.480Z,72.30
2018-05-21T04:06:00.443Z,72.11
2018-05-21T04:07:00.426Z,72.01
2018-05-21T04:08:00.404Z,72.78
2018-05-21T04:09:00.379Z,72.78
2018-05-21T04:10:00.345Z,72.30
2018-05-21T04:11:00.330Z,71.72
2018-05-21T04:12:00.462Z,72.58
2018-05-21T04:13:00.278Z,72.49
2018-05-21T04:14:00.256Z,73.25
2018-05-21T04:15:00.226Z,73.54
2018-05-21T04:16:00.205Z,73.44
2018-05-21T04:17:00.185Z,73.54
2018-05-21T04:18:00.150Z,73.25
2018-05-21T04:19:00.134Z,73.44
2018-05-21T04:20:00.104Z,73.35
2018-05-21T04:21:00.079Z,73.73
2018-05-21T04:22:00.061Z,74.30
2018-05-21T04:23:00.033Z,74.02
2018-05-21T04:24:00.013Z,73.25
2018-05-21T04:24:59.983Z,72.97
2018-05-21T04:25:59.963Z,71.82
2018-05-21T04:26:59.941Z,72.11
2018-05-21T04:27:59.912Z,71.82
2018-05-21T04:28:59.887Z,71.63
2018-05-21T04:29:59.855Z,71.76
2018-05-21T04:30:59.836Z,72.20
2018-05-21T04:31:59.816Z,72.33
2018-05-21T04:32:59.791Z,72.33
2018-05-21T04:33:59.758Z,71.92
2018-05-21T04:34:59.741Z,71.67
2018-05-21T04:35:59.715Z,72.43
2018-05-21T04:36:59.689Z,71.67
2018-05-21T04:37:59.669Z,71.67
2018-05-21T04:38:59.636Z,71.95
2018-05-21T04:39:59.620Z,71.95
2018-05-21T04:40:59.594Z,72.05
2018-05-21T04:41:59.572Z,71.86
2018-05-21T04:42:59.547Z,71.47
2018-05-21T04:43:59.521Z,71.67
2018-05-21T04:44:59.493Z,71.76
2018-05-21T04:45:59.472Z,72.53
2018-05-21T04:46:59.449Z,72.72
2018-05-21T04:47:59.422Z,72.05
2018-05-21T04:48:59.396Z,72.62
2018-05-21T04:49:59.378Z,72.43
2018-05-21T04:50:59.348Z,72.14
2018-05-21T04:51:59.325Z,71.67
2018-05-21T04:52:59.306Z,71.86
2018-05-21T04:53:59.270Z,72.28
2018-05-21T04:54:59.256Z,71.95
2018-05-21T04:55:59.223Z,71.47
2018-05-21T04:56:59.205Z,70.71
2018-05-21T04:57:59.173Z,71.00
2018-05-21T04:58:59.149Z,71.22
2018-05-21T04:59:59.134Z,71.51
2018-05-21T05:00:59.107Z,71.99
2018-05-21T05:01:59.079Z,71.51
2018-05-21T05:02:59.067Z,71.70
2018-05-21T05:03:59.065Z,71.42
2018-05-21T05:04:59.013Z,70.75
2018-05-21T05:05:58.990Z,71.42
2018-05-21T05:06:58.966Z,71.89
2018-05-21T05:07:58.949Z,71.89
2018-05-21T05:08:58.909Z,71.51
2018-05-21T05:09:58.893Z,71.32
2018-05-21T05:10:58.857Z,71.42
2018-05-21T05:11:58.848Z,70.94
2018-05-21T05:12:58.817Z,71.03
2018-05-21T05:13:58.789Z,70.94
2018-05-21T05:14:58.776Z,71.32
2018-05-21T05:15:58.738Z,71.42
2018-05-21T05:16:58.717Z,71.42
2018-05-21T05:17:58.729Z,71.32
2018-05-21T05:18:58.672Z,70.87
2018-05-21T05:19:58.652Z,71.03
2018-05-21T05:20:58.629Z,70.97
2018-05-21T05:21:58.595Z,71.55
2018-05-21T05:22:58.572Z,70.87
2018-05-21T05:23:58.551Z,70.97
2018-05-21T05:24:58.524Z,71.07
2018-05-21T05:25:58.502Z,70.59
2018-05-21T05:26:58.481Z,70.97
2018-05-21T05:27:58.448Z,70.78
2018-05-21T05:28:58.446Z,70.21
2018-05-21T05:29:58.400Z,70.50
2018-05-21T05:30:58.375Z,70.78
2018-05-21T05:31:58.360Z,70.50
2018-05-21T05:33:02.798Z,70.30
2018-05-21T05:33:59.462Z,70.21
2018-05-21T05:35:00.072Z,70.24
2018-05-21T05:36:00.610Z,70.91
2018-05-21T05:37:00.121Z,70.62
2018-05-21T05:37:58.204Z,70.24
2018-05-21T05:38:58.187Z,70.05
2018-05-21T05:39:58.162Z,69.86
2018-05-21T05:40:58.134Z,70.15
2018-05-21T05:41:58.198Z,69.86
2018-05-21T05:42:58.097Z,70.15
2018-05-21T05:43:58.064Z,69.95
2018-05-21T05:44:58.049Z,69.86
2018-05-21T05:45:58.024Z,70.24
2018-05-21T05:46:58.009Z,69.76
2018-05-21T05:47:57.971Z,69.67
2018-05-21T05:48:57.956Z,69.76
2018-05-21T05:49:57.923Z,69.60
2018-05-21T05:50:57.894Z,69.89
2018-05-21T05:51:57.880Z,69.51
2018-05-21T05:52:57.858Z,69.89
2018-05-21T05:53:57.824Z,68.94
2018-05-21T05:54:57.811Z,69.23
2018-05-21T05:55:57.775Z,69.51
2018-05-21T05:56:57.787Z,69.42
2018-05-21T05:57:57.732Z,69.23
2018-05-21T05:58:57.706Z,69.03
2018-05-21T05:59:57.684Z,69.70
2018-05-21T06:00:57.665Z,69.89
2018-05-21T06:01:57.630Z,69.89
2018-05-21T06:02:57.615Z,69.03
2018-05-21T06:03:57.588Z,69.54
2018-05-21T06:04:57.566Z,69.93
2018-05-21T06:05:57.542Z,68.97
2018-05-21T06:06:57.524Z,68.97
2018-05-21T06:07:57.487Z,68.87
2018-05-21T06:08:57.474Z,68.87
2018-05-21T06:09:57.440Z,68.30
2018-05-21T06:10:57.418Z,68.21
2018-05-21T06:11:57.402Z,68.21
2018-05-21T06:12:57.369Z,68.30
2018-05-21T06:13:57.354Z,68.21
2018-05-21T06:14:57.328Z,68.40
2018-05-21T06:15:57.306Z,68.33
2018-05-21T06:16:57.282Z,69.35
2018-05-21T06:17:57.254Z,68.87
2018-05-21T06:18:57.236Z,68.14
2018-05-21T06:19:57.205Z,68.14
2018-05-21T06:20:57.186Z,68.33
2018-05-21T06:21:57.161Z,68.43
2018-05-21T06:22:57.132Z,67.57
2018-05-21T06:23:57.119Z,67.57
2018-05-21T06:24:57.086Z,67.47
2018-05-21T06:25:57.105Z,67.28
2018-05-21T06:26:57.047Z,67.28
2018-05-21T06:27:57.015Z,67.38
2018-05-21T06:28:57.001Z,67.47
2018-05-21T06:29:56.967Z,67.28
2018-05-21T06:30:56.947Z,67.47
2018-05-21T06:31:56.926Z,67.38
2018-05-21T06:32:56.907Z,67.50
2018-05-21T06:33:56.910Z,67.60
2018-05-21T06:34:56.851Z,67.60
2018-05-21T06:35:56.835Z,67.69
2018-05-21T06:36:56.804Z,67.32
2018-05-21T06:37:56.787Z,67.41
2018-05-21T06:38:56.767Z,67.02
2018-05-21T06:39:56.732Z,66.83
2018-05-21T06:40:56.716Z,67.12
2018-05-21T06:41:56.692Z,67.32
2018-05-21T06:42:56.670Z,66.83
2018-05-21T06:43:56.647Z,67.22
2018-05-21T06:44:56.621Z,67.02
2018-05-21T06:45:56.593Z,67.06
2018-05-21T06:46:56.575Z,66.55
2018-05-21T06:47:56.547Z,66.55
2018-05-21T06:48:56.523Z,67.25
2018-05-21T06:49:56.500Z,67.06
2018-05-21T06:50:56.477Z,66.86
2018-05-21T06:51:56.451Z,67.06
2018-05-21T06:52:56.445Z,67.06
2018-05-21T06:53:56.404Z,66.58
2018-05-21T06:54:56.382Z,66.77
2018-05-21T06:55:56.371Z,66.58
2018-05-21T06:56:56.341Z,66.58
2018-05-21T06:57:56.315Z,66.58
2018-05-21T06:58:56.299Z,66.96
2018-05-21T06:59:56.263Z,66.29
2018-05-21T07:00:56.250Z,66.29
2018-05-21T07:01:56.225Z,66.39
2018-05-21T07:02:56.205Z,66.49
2018-05-21T07:03:56.185Z,67.35
2018-05-21T07:04:56.157Z,67.25
2018-05-21T07:05:56.131Z,66.96
2018-05-21T07:06:56.109Z,67.09
2018-05-21T07:07:56.217Z,66.71
2018-05-21T07:08:56.108Z,66.71
2018-05-21T07:09:56.043Z,66.23
2018-05-21T07:10:56.019Z,65.75
2018-05-21T07:11:55.987Z,66.42
2018-05-21T07:12:55.974Z,66.61
2018-05-21T07:13:55.940Z,66.03
2018-05-21T07:14:55.920Z,65.75
2018-05-21T07:15:55.903Z,66.13
2018-05-21T07:16:55.872Z,66.64
2018-05-21T07:17:55.858Z,65.65
2018-05-21T07:18:55.830Z,66.13
2018-05-21T07:19:55.834Z,65.97
2018-05-21T07:20:55.782Z,66.07
2018-05-21T07:21:55.763Z,66.07
2018-05-21T07:22:55.741Z,65.88
2018-05-21T07:23:55.709Z,65.88
2018-05-21T07:24:55.688Z,65.88
2018-05-21T07:25:55.665Z,66.16
2018-05-21T07:26:55.646Z,66.16
2018-05-21T07:27:55.626Z,65.78
2018-05-21T07:28:55.596Z,66.07
2018-05-21T07:29:55.583Z,65.78
2018-05-21T07:30:55.559Z,65.49
2018-05-21T07:31:55.525Z,65.78
2018-05-21T07:32:55.512Z,65.69
2018-05-21T07:33:55.479Z,66.16
2018-05-21T07:34:55.462Z,66.26
2018-05-21T07:35:55.442Z,66.84
2018-05-21T07:36:55.428Z,66.00
2018-05-21T07:37:55.391Z,66.20
2018-05-21T07:38:55.372Z,66.39
2018-05-21T07:39:55.352Z,66.10
2018-05-21T07:40:55.334Z,66.39
2018-05-21T07:41:55.307Z,66.10
2018-05-21T07:42:55.278Z,66.10
2018-05-21T07:43:55.259Z,66.00
2018-05-21T07:44:55.245Z,66.10
2018-05-21T07:45:55.224Z,66.39
2018-05-21T07:46:55.188Z,65.53
2018-05-21T07:47:55.194Z,65.84
2018-05-21T07:48:55.143Z,65.62
2018-05-21T07:49:57.550Z,65.33
2018-05-21T07:50:58.211Z,65.37
2018-05-21T07:51:58.881Z,64.79
2018-05-21T07:52:55.048Z,65.37
2018-05-21T07:53:55.035Z,64.50
2018-05-21T07:54:55.006Z,65.08
2018-05-21T07:55:54.978Z,64.69
2018-05-21T07:56:54.968Z,64.79
2018-05-21T07:57:54.949Z,65.08
2018-05-21T07:58:54.916Z,65.17
2018-05-21T07:59:54.892Z,64.31
2018-05-21T08:00:54.869Z,64.50
2018-05-21T08:01:55.041Z,64.79
2018-05-21T08:02:54.827Z,64.98
2018-05-21T08:03:54.809Z,64.40
2018-05-21T08:04:54.788Z,64.89
2018-05-21T08:05:54.754Z,64.63
2018-05-21T08:06:54.735Z,65.01
2018-05-21T08:07:54.714Z,64.34
2018-05-21T08:08:54.698Z,64.63
2018-05-21T08:09:54.669Z,64.92
2018-05-21T08:10:54.649Z,64.53
2018-05-21T08:11:54.644Z,65.01
2018-05-21T08:12:54.597Z,64.82
2018-05-21T08:13:54.582Z,64.73
2018-05-21T08:14:54.809Z,64.15
2018-05-21T08:15:54.529Z,64.82
2018-05-21T08:16:54.516Z,63.18
2018-05-21T08:17:54.484Z,64.05
2018-05-21T08:18:54.463Z,63.86
2018-05-21T08:19:54.446Z,63.99
2018-05-21T08:20:54.421Z,64.08
2018-05-21T08:21:54.402Z,63.89
2018-05-21T08:22:54.379Z,63.99
2018-05-21T08:23:54.353Z,64.08
2018-05-21T08:24:55.158Z,64.28
2018-05-21T08:25:54.315Z,63.31
2018-05-21T08:26:54.287Z,62.93
2018-05-21T08:27:54.263Z,62.16
2018-05-21T08:28:54.244Z,62.83
2018-05-21T08:29:54.237Z,62.83
2018-05-21T08:30:54.210Z,63.51
2018-05-21T08:31:54.176Z,63.60
2018-05-21T08:32:54.166Z,63.70
2018-05-21T08:33:54.130Z,63.70
2018-05-21T08:34:54.110Z,63.92
2018-05-21T08:35:54.091Z,63.25
2018-05-21T08:36:54.068Z,62.87
2018-05-21T08:37:54.049Z,63.15
2018-05-21T08:38:54.030Z,62.87
2018-05-21T08:39:54.003Z,62.57
2018-05-21T08:40:53.978Z,62.38
2018-05-21T08:41:53.951Z,62.38
2018-05-21T08:42:53.946Z,62.96
2018-05-21T08:43:53.919Z,62.22
2018-05-21T08:44:53.894Z,62.51
2018-05-21T08:45:53.867Z,62.48
2018-05-21T08:46:53.845Z,61.93
2018-05-21T08:47:53.831Z,62.12
2018-05-21T08:48:53.848Z,61.55
2018-05-21T08:49:53.780Z,61.65
2018-05-21T08:50:53.771Z,61.45
2018-05-21T08:51:53.738Z,61.16
2018-05-21T08:52:53.720Z,60.87
2018-05-21T08:53:53.704Z,61.16
2018-05-21T08:54:53.674Z,60.77
2018-05-21T08:55:53.665Z,61.25
2018-05-21T08:56:53.634Z,61.55
2018-05-21T08:57:53.602Z,60.87
2018-05-21T08:58:53.610Z,60.68
2018-05-21T08:59:53.569Z,60.77
2018-05-21T09:00:53.544Z,60.39
2018-05-21T09:01:53.529Z,60.20
2018-05-21T09:02:53.504Z,60.80
2018-05-21T09:03:53.475Z,60.71
2018-05-21T09:04:53.463Z,60.90
2018-05-21T09:05:53.429Z,60.80
2018-05-21T09:06:53.414Z,60.61
2018-05-21T09:07:53.398Z,59.75
2018-05-21T09:08:53.367Z,60.42
2018-05-21T09:09:53.423Z,60.71
2018-05-21T09:10:53.329Z,60.71
2018-05-21T09:11:53.306Z,60.42
2018-05-21T09:12:53.283Z,60.71
2018-05-21T09:13:53.270Z,60.52
2018-05-21T09:14:53.247Z,60.71
2018-05-21T09:15:53.218Z,60.80
2018-05-21T09:16:53.202Z,60.52
2018-05-21T09:17:53.174Z,59.55
2018-05-21T09:18:53.158Z,60.42
2018-05-21T09:19:53.135Z,60.32
2018-05-21T09:20:53.112Z,59.48
2018-05-21T09:21:53.098Z,59.97
2018-05-21T09:22:53.075Z,59.97
2018-05-21T09:23:53.056Z,59.30
2018-05-21T09:24:53.028Z,58.14
2018-05-21T09:25:53.008Z,57.94
2018-05-21T09:26:52.992Z,58.42
2018-05-21T09:27:52.962Z,58.52
2018-05-21T09:28:52.950Z,57.94
2018-05-21T09:29:52.939Z,58.04
2018-05-21T09:30:52.906Z,58.14
2018-05-21T09:31:52.889Z,57.37
2018-05-21T09:32:52.875Z,57.94
2018-05-21T09:33:52.847Z,57.65
2018-05-21T09:34:52.826Z,57.27
2018-05-21T09:35:52.798Z,57.75
2018-05-21T09:36:52.782Z,57.65
2018-05-21T09:37:52.756Z,57.94
2018-05-21T09:38:52.736Z,57.65
2018-05-21T09:39:52.713Z,57.10
2018-05-21T09:40:52.695Z,57.10
2018-05-21T09:41:52.678Z,57.78
2018-05-21T09:42:52.651Z,57.49
2018-05-21T09:43:52.628Z,57.20
2018-05-21T09:44:52.617Z,56.43
2018-05-21T09:45:52.586Z,55.94
2018-05-21T09:46:52.570Z,55.88
2018-05-21T09:47:52.544Z,54.72
2018-05-21T09:48:52.529Z,54.43
2018-05-21T09:49:52.505Z,53.66
2018-05-21T09:50:52.478Z,53.17
2018-05-21T09:51:52.467Z,53.08
2018-05-21T09:52:52.442Z,53.27
2018-05-21T09:53:52.418Z,52.59
2018-05-21T09:54:52.410Z,52.50
2018-05-21T09:55:52.410Z,52.69
2018-05-21T09:56:52.369Z,52.89
2018-05-21T09:57:52.346Z,52.40
2018-05-21T09:58:52.315Z,52.01
2018-05-21T09:59:52.299Z,51.05
2018-05-21T10:00:52.280Z,50.96
2018-05-21T10:01:52.252Z,51.25
2018-05-21T10:02:52.257Z,52.01
2018-05-21T10:03:52.217Z,51.95
2018-05-21T10:04:52.190Z,51.15
2018-05-21T10:05:52.183Z,49.73
2018-05-21T10:06:52.167Z,49.24
2018-05-21T10:07:52.126Z,49.53
2018-05-21T10:08:52.115Z,49.73
2018-05-21T10:09:52.085Z,49.05
2018-05-21T10:10:52.153Z,48.37
2018-05-21T10:11:52.052Z,48.86
2018-05-21T10:12:52.049Z,48.95
2018-05-21T10:13:52.014Z,48.86
2018-05-21T10:14:51.988Z,49.73
2018-05-21T10:15:51.964Z,49.44
2018-05-21T10:16:51.948Z,49.34
2018-05-21T10:17:52.023Z,49.53
2018-05-21T10:18:51.902Z,50.01
2018-05-21T10:19:51.890Z,50.89
2018-05-21T10:20:51.862Z,51.37
2018-05-21T10:21:51.859Z,50.59
2018-05-21T10:22:51.820Z,50.69
2018-05-21T10:23:51.799Z,51.46
2018-05-21T10:24:51.787Z,50.69
2018-05-21T10:25:51.768Z,50.21
2018-05-21T10:26:51.739Z,50.79
2018-05-21T10:27:51.725Z,50.21
2018-05-21T10:28:51.699Z,50.01
2018-05-21T10:29:51.680Z,50.11
2018-05-21T10:30:51.659Z,49.63
2018-05-21T10:31:51.651Z,49.44
2018-05-21T10:32:51.628Z,49.92
2018-05-21T10:33:51.592Z,49.44
2018-05-21T10:34:51.580Z,48.97
2018-05-21T10:35:51.644Z,47.89
2018-05-21T10:36:51.536Z,47.12
2018-05-21T10:37:51.521Z,47.60
2018-05-21T10:38:51.501Z,48.18
2018-05-21T10:39:51.493Z,48.39
2018-05-21T10:40:51.470Z,48.79
2018-05-21T10:41:51.431Z,48.30
2018-05-21T10:42:51.419Z,47.91
2018-05-21T10:43:51.482Z,47.05
2018-05-21T10:44:51.388Z,45.21
2018-05-21T10:45:51.372Z,45.31
2018-05-21T10:46:51.354Z,45.79
2018-05-21T10:47:51.314Z,45.11
2018-05-21T10:48:51.294Z,45.01
2018-05-21T10:49:51.277Z,43.47
2018-05-21T10:50:51.253Z,43.95
2018-05-21T10:51:51.235Z,43.85
2018-05-21T10:52:51.220Z,43.76
2018-05-21T10:53:51.196Z,44.53
2018-05-21T10:54:51.173Z,44.05
2018-05-21T10:55:51.157Z,44.24
2018-05-21T10:56:51.136Z,43.85
2018-05-21T10:57:51.116Z,43.95
2018-05-21T10:58:51.098Z,43.66
2018-05-21T10:59:51.069Z,44.34
2018-05-21T11:00:51.050Z,45.14
2018-05-21T11:01:51.036Z,43.88
2018-05-21T11:02:51.018Z,45.23
2018-05-21T11:03:50.990Z,43.40
2018-05-21T11:04:50.975Z,42.43
2018-05-21T11:05:50.945Z,41.94
2018-05-21T11:06:50.926Z,43.20
2018-05-21T11:07:50.913Z,42.82
2018-05-21T11:08:50.888Z,42.82
2018-05-21T11:09:50.874Z,43.01
2018-05-21T11:10:50.854Z,43.78
2018-05-21T11:11:50.832Z,43.10
2018-05-21T11:12:50.809Z,43.01
2018-05-21T11:13:50.785Z,43.59
2018-05-21T11:14:50.774Z,42.82
2018-05-21T11:15:50.754Z,42.82
2018-05-21T11:16:50.732Z,42.04
2018-05-21T11:17:50.780Z,42.04
2018-05-21T11:18:50.691Z,43.01
2018-05-21T11:19:50.750Z,42.33
2018-05-21T11:20:50.654Z,43.01
2018-05-21T11:21:50.629Z,42.82
2018-05-21T11:22:50.611Z,43.10
2018-05-21T11:23:50.590Z,43.30
2018-05-21T11:24:50.567Z,42.72
2018-05-21T11:25:50.562Z,43.40
2018-05-21T11:26:50.537Z,43.10
2018-05-21T11:27:50.514Z,42.72
2018-05-21T11:28:50.494Z,43.10
2018-05-21T11:29:50.473Z,43.90
2018-05-21T11:30:50.454Z,43.03
2018-05-21T11:31:50.459Z,42.65
2018-05-21T11:32:50.414Z,43.23
2018-05-21T11:33:50.391Z,41.75
2018-05-21T11:34:50.372Z,42.43
2018-05-21T11:35:50.352Z,41.56
2018-05-21T11:36:50.332Z,41.56
2018-05-21T11:37:50.311Z,41.46
2018-05-21T11:38:50.291Z,41.85
2018-05-21T11:39:50.270Z,40.69
2018-05-21T11:40:50.258Z,40.11
2018-05-21T11:41:50.229Z,40.50
2018-05-21T11:42:50.209Z,40.50
2018-05-21T11:43:50.188Z,41.75
2018-05-21T11:44:50.172Z,42.43
2018-05-21T11:45:50.151Z,42.14
2018-05-21T11:46:50.124Z,42.24
2018-05-21T11:47:50.115Z,43.30
2018-05-21T11:48:50.087Z,42.14
2018-05-21T11:49:50.137Z,41.56
2018-05-21T11:50:50.051Z,41.39
2018-05-21T11:51:50.032Z,41.36
2018-05-21T11:52:50.006Z,41.46
2018-05-21T11:53:49.993Z,41.46
2018-05-21T11:54:49.968Z,41.46
2018-05-21T11:55:49.977Z,41.36
2018-05-21T11:56:49.934Z,41.48
2018-05-21T11:57:49.908Z,41.48
2018-05-21T11:58:49.895Z,42.82
2018-05-21T11:59:49.878Z,41.87
2018-05-21T12:00:49.848Z,41.39
2018-05-21T12:01:49.901Z,40.32
2018-05-21T12:02:49.922Z,40.50
2018-05-21T12:03:49.798Z,40.13
2018-05-21T12:04:49.790Z,40.32
2018-05-21T12:05:49.750Z,40.71
2018-05-21T12:06:49.748Z,40.32
2018-05-21T12:07:49.793Z,40.42
2018-05-21T12:08:49.696Z,40.61
2018-05-21T12:09:49.671Z,40.32
2018-05-21T12:10:49.647Z,39.36
2018-05-21T12:11:50.254Z,39.06
2018-05-21T12:12:49.609Z,39.55
2018-05-21T12:13:49.627Z,38.87
2018-05-21T12:14:49.574Z,39.26
2018-05-21T12:15:49.548Z,39.94
2018-05-21T12:16:49.533Z,40.32
2018-05-21T12:17:49.509Z,39.74
2018-05-21T12:18:49.492Z,41.19
2018-05-21T12:19:49.478Z,41.21
2018-05-21T12:20:49.456Z,41.31
2018-05-21T12:21:49.435Z,41.79
2018-05-21T12:22:49.419Z,42.37
2018-05-21T12:23:49.402Z,41.70
2018-05-21T12:24:49.378Z,40.53
2018-05-21T12:25:49.370Z,40.15
2018-05-21T12:26:49.354Z,39.86
2018-05-21T12:27:49.312Z,39.47
2018-05-21T12:28:49.401Z,39.18
2018-05-21T12:29:49.276Z,39.76
2018-05-21T12:30:49.258Z,40.25
2018-05-21T12:31:49.244Z,40.44
2018-05-21T12:32:49.223Z,40.34
2018-05-21T12:33:49.199Z,40.65
2018-05-21T12:34:49.184Z,40.44
2018-05-21T12:35:49.157Z,39.20
2018-05-21T12:36:49.148Z,38.79
2018-05-21T12:37:49.216Z,39.57
2018-05-21T12:38:49.109Z,39.28
2018-05-21T12:39:49.080Z,38.50
2018-05-21T12:40:49.122Z,38.89
2018-05-21T12:41:49.049Z,38.60
2018-05-21T12:42:49.027Z,38.60
2018-05-21T12:43:49.010Z,38.31
2018-05-21T12:44:48.997Z,38.70
2018-05-21T12:45:48.969Z,39.09
2018-05-21T12:46:48.952Z,40.25
2018-05-21T12:47:48.925Z,40.53
2018-05-21T12:48:48.910Z,39.86
2018-05-21T12:49:48.893Z,39.86
2018-05-21T12:50:48.869Z,40.53
2018-05-21T12:51:48.857Z,39.47